Time;durP1;ratioP1;P1;durP2;ratioP2;P2;SDS_P1;SDS_P2;PMS_P1;PMS_P2;Temp;Humidity;BMP_temperature;BMP_pressure;BME280_temperature;BME280_humidity;BME280_pressure;Samples;Min_cycle;Max_cycle;Signal;HPM_P1;HPM_P2
2024/03/26 00:01:38;;;;;;;2.85;0.40;;;4.90;99.90;;;;;;4965448;28;20519;-93
2024/03/26 00:04:04;;;;;;;1.00;0.30;;;4.80;99.90;;;;;;4965191;28;20033;-93
2024/03/26 00:06:30;;;;;;;1.25;0.30;;;4.80;99.90;;;;;;4958047;28;20117;-92
2024/03/26 00:08:56;;;;;;;1.60;0.32;;;4.90;99.90;;;;;;4960721;28;20041;-93
2024/03/26 00:11:24;;;;;;;2.50;0.30;;;4.90;99.90;;;;;;4959186;28;20027;-92
2024/03/26 00:13:50;;;;;;;4.03;0.40;;;4.80;99.90;;;;;;4958554;28;20027;-92
2024/03/26 00:16:15;;;;;;;3.13;0.45;;;4.90;99.90;;;;;;4943297;28;20027;-92
2024/03/26 00:18:41;;;;;;;2.90;0.30;;;4.90;99.90;;;;;;4976468;28;20039;-92
2024/03/26 00:21:07;;;;;;;2.15;0.32;;;4.90;99.90;;;;;;4956510;28;20030;-92
2024/03/26 00:23:33;;;;;;;1.83;0.35;;;4.90;99.90;;;;;;4957286;28;20479;-93
2024/03/26 00:25:58;;;;;;;1.90;0.30;;;5.00;99.90;;;;;;4963016;28;20508;-93
2024/03/26 00:28:24;;;;;;;1.20;0.28;;;4.90;99.90;;;;;;4943057;28;20109;-92
2024/03/26 00:30:50;;;;;;;1.30;0.30;;;4.90;99.90;;;;;;4940836;28;20022;-92
2024/03/26 00:33:16;;;;;;;3.45;0.30;;;4.90;99.90;;;;;;4959222;28;20058;-92
2024/03/26 00:35:41;;;;;;;1.92;0.30;;;4.90;99.90;;;;;;4949989;28;20486;-93
2024/03/26 00:38:07;;;;;;;3.70;0.40;;;4.90;99.90;;;;;;4958637;28;20042;-92
2024/03/26 00:40:33;;;;;;;3.00;0.30;;;4.90;99.90;;;;;;4980424;28;20117;-93
2024/03/26 00:42:59;;;;;;;1.65;0.40;;;4.90;99.90;;;;;;4958807;28;20435;-93
2024/03/26 00:45:25;;;;;;;1.65;0.32;;;4.90;99.90;;;;;;4958363;28;20472;-94
2024/03/26 00:47:51;;;;;;;2.40;0.50;;;4.90;99.90;;;;;;4940140;28;20042;-92
2024/03/26 00:50:18;;;;;;;1.30;0.30;;;4.80;99.90;;;;;;4961142;28;20092;-92
2024/03/26 00:52:44;;;;;;;3.22;0.40;;;4.90;99.90;;;;;;4956763;28;20070;-92
2024/03/26 00:55:10;;;;;;;1.42;0.30;;;4.80;99.90;;;;;;4957662;28;20054;-93
2024/03/26 00:57:35;;;;;;;1.48;0.40;;;4.80;99.90;;;;;;4957530;28;20121;-92
2024/03/26 01:00:02;;;;;;;2.38;0.40;;;4.80;99.90;;;;;;4957551;28;20030;-94
2024/03/26 01:02:31;;;;;;;1.70;0.30;;;4.80;99.90;;;;;;4959870;28;20391;-92
2024/03/26 01:04:57;;;;;;;2.35;0.30;;;4.80;99.90;;;;;;4942446;28;20035;-93
2024/03/26 01:07:22;;;;;;;1.48;0.30;;;4.80;99.90;;;;;;4958440;28;20399;-92
2024/03/26 01:09:48;;;;;;;3.03;0.40;;;4.80;99.90;;;;;;4955061;28;20027;-92
2024/03/26 01:12:14;;;;;;;2.08;0.30;;;4.80;99.90;;;;;;4958362;28;20045;-93
2024/03/26 01:14:40;;;;;;;1.65;0.30;;;4.80;99.90;;;;;;4969073;28;20037;-92
2024/03/26 01:17:08;;;;;;;1.75;0.30;;;4.80;99.90;;;;;;4950123;28;20387;-92
2024/03/26 01:19:34;;;;;;;1.88;0.40;;;4.80;99.90;;;;;;4941605;28;20113;-92
2024/03/26 01:21:59;;;;;;;2.38;0.30;;;4.80;99.90;;;;;;4941181;28;20494;-93
2024/03/26 01:24:25;;;;;;;1.55;0.40;;;4.80;99.90;;;;;;4966419;28;20048;-93
2024/03/26 01:26:51;;;;;;;3.65;0.40;;;4.80;99.90;;;;;;4951431;28;20027;-92
2024/03/26 01:29:17;;;;;;;2.10;0.35;;;4.90;99.90;;;;;;4958055;28;20101;-92
2024/03/26 01:31:45;;;;;;;2.47;0.40;;;4.90;99.90;;;;;;4940070;28;20042;-93
2024/03/26 01:34:11;;;;;;;2.72;0.45;;;4.90;99.90;;;;;;4959506;28;20403;-92
2024/03/26 01:36:36;;;;;;;2.53;0.32;;;4.80;99.90;;;;;;4938128;28;20040;-92
2024/03/26 01:39:03;;;;;;;1.75;0.30;;;4.90;99.90;;;;;;4958000;28;20065;-93
2024/03/26 01:41:29;;;;;;;1.58;0.40;;;4.80;99.90;;;;;;4946082;28;20468;-92
2024/03/26 01:43:55;;;;;;;3.05;0.40;;;4.90;99.90;;;;;;4960132;28;20039;-92
2024/03/26 01:46:20;;;;;;;2.35;0.43;;;4.90;99.90;;;;;;4963771;28;20041;-92
2024/03/26 01:48:48;;;;;;;3.08;0.43;;;4.80;99.90;;;;;;4954256;28;20780;-91
2024/03/26 01:51:14;;;;;;;2.92;0.50;;;4.90;99.90;;;;;;4941923;28;20480;-91
2024/03/26 01:53:40;;;;;;;1.38;0.40;;;4.80;99.90;;;;;;4957684;28;20027;-92
2024/03/26 01:56:07;;;;;;;2.10;0.40;;;4.80;99.90;;;;;;4961489;28;20034;-92
2024/03/26 01:58:32;;;;;;;2.35;0.40;;;4.70;99.90;;;;;;4957100;28;20043;-91
2024/03/26 02:01:01;;;;;;;2.58;0.52;;;4.70;99.90;;;;;;4935610;28;20058;-92
2024/03/26 02:03:27;;;;;;;1.02;0.40;;;4.80;99.90;;;;;;4961867;28;20034;-94
2024/03/26 02:05:55;;;;;;;3.60;0.30;;;4.70;99.90;;;;;;4957656;28;20061;-92
2024/03/26 02:08:21;;;;;;;2.90;0.40;;;4.60;99.90;;;;;;4962033;28;20238;-92
2024/03/26 02:10:47;;;;;;;1.63;0.50;;;4.60;99.90;;;;;;4952185;28;20038;-92
2024/03/26 02:13:13;;;;;;;1.08;0.30;;;4.60;99.90;;;;;;4941230;28;20038;-92
2024/03/26 02:15:39;;;;;;;2.08;0.38;;;4.60;99.90;;;;;;4947063;28;20030;-92
2024/03/26 02:18:05;;;;;;;1.50;0.32;;;4.60;99.90;;;;;;4957240;28;20043;-92
2024/03/26 02:20:32;;;;;;;2.55;0.50;;;4.60;99.90;;;;;;4956290;28;20033;-92
2024/03/26 02:22:57;;;;;;;1.90;0.35;;;4.60;99.90;;;;;;4934096;28;20027;-91
2024/03/26 02:25:23;;;;;;;0.93;0.30;;;4.50;99.90;;;;;;4958408;28;20513;-91
2024/03/26 02:27:50;;;;;;;1.20;0.40;;;4.60;99.90;;;;;;4953997;28;20027;-92
2024/03/26 02:30:15;;;;;;;2.72;0.60;;;4.50;99.90;;;;;;4951950;28;20035;-91
2024/03/26 02:32:43;;;;;;;2.50;0.32;;;4.50;99.90;;;;;;4956062;28;20035;-92
2024/03/26 02:35:10;;;;;;;3.50;0.40;;;4.60;99.90;;;;;;4954288;28;20031;-92
2024/03/26 02:37:36;;;;;;;1.90;0.50;;;4.60;99.90;;;;;;4956472;28;20039;-92
2024/03/26 02:40:06;;;;;;;3.92;0.57;;;4.60;99.90;;;;;;4955293;28;20070;-92
2024/03/26 02:42:32;;;;;;;1.30;0.40;;;4.60;99.90;;;;;;4936368;28;20113;-91
2024/03/26 02:44:58;;;;;;;3.05;0.40;;;4.60;99.90;;;;;;4958848;28;20089;-92
2024/03/26 02:47:26;;;;;;;1.77;0.40;;;4.50;99.90;;;;;;4961355;28;20125;-91
2024/03/26 02:49:52;;;;;;;2.40;0.40;;;4.50;99.90;;;;;;4959074;28;20577;-95
2024/03/26 02:52:18;;;;;;;2.65;0.30;;;4.60;99.90;;;;;;4936670;28;20031;-93
2024/03/26 02:54:44;;;;;;;2.30;0.45;;;4.60;99.90;;;;;;4955387;28;20473;-92
2024/03/26 02:57:10;;;;;;;2.00;0.40;;;4.60;99.90;;;;;;4937563;28;20118;-92
2024/03/26 02:59:38;;;;;;;1.88;0.40;;;4.60;99.90;;;;;;4989893;23;20042;-92
2024/03/26 03:02:06;;;;;;;2.25;0.57;;;4.70;99.90;;;;;;4987581;28;20402;-93
2024/03/26 03:04:32;;;;;;;4.65;0.60;;;4.70;99.90;;;;;;4988360;28;20026;-93
2024/03/26 03:06:57;;;;;;;1.83;0.50;;;4.70;99.90;;;;;;4988713;28;20081;-92
2024/03/26 03:09:25;;;;;;;4.03;0.77;;;4.70;99.90;;;;;;4991978;28;20053;-92
2024/03/26 03:11:51;;;;;;;3.55;0.52;;;4.70;99.90;;;;;;4990612;28;20105;-91
2024/03/26 03:14:17;;;;;;;4.82;0.70;;;4.80;99.90;;;;;;4977514;28;20097;-92
2024/03/26 03:16:43;;;;;;;2.42;0.40;;;4.80;99.90;;;;;;4975304;28;20771;-92
2024/03/26 03:19:09;;;;;;;2.85;0.50;;;4.80;99.90;;;;;;4992779;28;20288;-93
2024/03/26 03:21:34;;;;;;;1.98;0.40;;;4.80;99.90;;;;;;4990683;28;20064;-93
2024/03/26 03:24:00;;;;;;;2.67;0.40;;;4.80;99.90;;;;;;4993425;28;20062;-92
2024/03/26 03:26:26;;;;;;;2.65;0.40;;;4.80;99.90;;;;;;4989419;28;20030;-92
2024/03/26 03:28:52;;;;;;;1.95;0.40;;;4.80;99.90;;;;;;4992511;28;20363;-94
2024/03/26 03:31:18;;;;;;;1.92;0.40;;;4.80;99.90;;;;;;4973031;28;20490;-94
2024/03/26 03:33:44;;;;;;;1.20;0.30;;;4.80;99.90;;;;;;4990946;28;20102;-93
2024/03/26 03:36:10;;;;;;;2.80;0.40;;;4.80;99.90;;;;;;4994533;28;20062;-94
2024/03/26 03:38:36;;;;;;;1.10;0.30;;;4.80;99.90;;;;;;4971273;28;20061;-92
2024/03/26 03:41:02;;;;;;;2.17;0.30;;;4.80;99.90;;;;;;4972833;28;20026;-93
2024/03/26 03:43:28;;;;;;;3.65;0.40;;;4.70;99.90;;;;;;4990911;28;20034;-93
2024/03/26 03:45:56;;;;;;;1.40;0.40;;;4.70;99.90;;;;;;4976927;28;20029;-93
2024/03/26 03:48:23;;;;;;;2.63;0.40;;;4.70;99.90;;;;;;4992027;28;20034;-93
2024/03/26 03:50:51;;;;;;;2.47;0.50;;;4.70;99.90;;;;;;4987832;28;20022;-93
2024/03/26 03:53:17;;;;;;;1.48;0.30;;;4.60;99.90;;;;;;4990849;28;20199;-92
2024/03/26 03:55:43;;;;;;;2.45;0.40;;;4.60;99.90;;;;;;4993213;28;20048;-93
2024/03/26 03:58:10;;;;;;;1.30;0.32;;;4.70;99.90;;;;;;4993910;28;20483;-93
2024/03/26 04:00:36;;;;;;;2.03;0.40;;;4.60;99.90;;;;;;5006749;28;20053;-94
2024/03/26 04:03:02;;;;;;;2.33;0.50;;;4.60;99.90;;;;;;5008900;28;20038;-93
2024/03/26 04:05:31;;;;;;;3.53;0.35;;;4.60;99.90;;;;;;5004961;28;20053;-92
2024/03/26 04:07:57;;;;;;;0.95;0.50;;;4.60;99.90;;;;;;5006348;28;20026;-92
2024/03/26 04:10:25;;;;;;;2.03;0.75;;;4.60;99.90;;;;;;5007093;28;20544;-91
2024/03/26 04:12:50;;;;;;;1.52;0.40;;;4.60;99.90;;;;;;5003988;28;20106;-93
2024/03/26 04:15:25;;;;;;;1.40;0.40;;;4.50;99.90;;;;;;5006791;28;20027;-93
2024/03/26 04:17:51;;;;;;;2.08;0.40;;;4.50;99.90;;;;;;5003246;28;20042;-93
2024/03/26 04:20:17;;;;;;;1.98;0.40;;;4.50;99.90;;;;;;4990753;28;20478;-92
2024/03/26 04:22:47;;;;;;;1.95;0.28;;;4.50;99.90;;;;;;5007729;28;20121;-92
2024/03/26 04:25:18;;;;;;;1.40;0.50;;;4.50;99.90;;;;;;4995218;28;20088;-92
2024/03/26 04:27:45;;;;;;;1.95;0.30;;;4.40;99.90;;;;;;5009468;28;20093;-92
2024/03/26 04:30:12;;;;;;;2.45;0.30;;;4.40;99.90;;;;;;5009938;28;20026;-92
2024/03/26 04:32:38;;;;;;;0.80;0.30;;;4.40;99.90;;;;;;5011537;28;20428;-92
2024/03/26 04:35:08;;;;;;;2.47;0.45;;;4.40;99.90;;;;;;4997169;28;20026;-94
2024/03/26 04:37:37;;;;;;;1.33;0.40;;;4.30;99.90;;;;;;5007299;28;20034;-94
2024/03/26 04:40:05;;;;;;;2.72;0.50;;;4.40;99.90;;;;;;5009390;28;20022;-92
2024/03/26 04:42:32;;;;;;;2.85;0.40;;;4.20;99.90;;;;;;5025627;28;20034;-93
2024/03/26 04:45:03;;;;;;;1.42;0.32;;;4.20;99.90;;;;;;4996580;28;20030;-94
2024/03/26 04:47:28;;;;;;;2.95;0.40;;;4.20;99.90;;;;;;5009814;28;20040;-93
2024/03/26 04:49:54;;;;;;;0.90;0.30;;;4.20;99.90;;;;;;5009679;28;20025;-92
2024/03/26 04:52:20;;;;;;;1.88;0.30;;;4.10;99.90;;;;;;5010415;28;20034;-92
2024/03/26 04:54:46;;;;;;;0.80;0.30;;;4.10;99.90;;;;;;5007568;28;20025;-93
2024/03/26 04:57:15;;;;;;;1.73;0.30;;;4.00;99.90;;;;;;5023164;28;20038;-93
2024/03/26 04:59:50;;;;;;;1.98;0.30;;;4.00;99.90;;;;;;5010986;28;20304;-93
2024/03/26 05:02:21;;;;;;;1.55;0.40;;;3.90;99.90;;;;;;5010427;28;20124;-94
2024/03/26 05:04:50;;;;;;;1.73;0.20;;;3.90;99.90;;;;;;5007583;28;20462;-95
2024/03/26 05:07:21;;;;;;;0.88;0.20;;;3.90;99.90;;;;;;4990610;28;20018;-93
2024/03/26 05:09:51;;;;;;;0.88;0.20;;;3.90;99.90;;;;;;5007939;28;20122;-93
2024/03/26 05:12:17;;;;;;;0.80;0.20;;;3.90;99.90;;;;;;5023443;28;20031;-95
2024/03/26 05:14:45;;;;;;;1.67;0.30;;;3.80;99.90;;;;;;4994229;28;20372;-93
2024/03/26 05:17:27;;;;;;;0.80;0.20;;;3.80;99.90;;;;;;4990598;28;20048;-93
2024/03/26 05:20:05;;;;;;;0.98;0.30;;;3.80;99.90;;;;;;5009273;28;20026;-94
2024/03/26 05:22:31;;;;;;;;;;;3.80;99.90;;;;;;5006023;28;20034;-94
2024/03/26 05:24:59;;;;;;;0.82;0.25;;;3.90;99.90;;;;;;4994109;28;19964;-94
2024/03/26 05:27:35;;;;;;;1.10;0.30;;;3.90;99.90;;;;;;5007641;28;20422;-93
2024/03/26 05:30:03;;;;;;;1.02;0.30;;;3.90;99.90;;;;;;5024808;28;20026;-94
2024/03/26 05:32:29;;;;;;;1.65;0.30;;;3.80;99.90;;;;;;5008783;28;20026;-93
2024/03/26 05:34:57;;;;;;;1.00;0.20;;;3.80;99.90;;;;;;5009602;28;20471;-94
2024/03/26 05:37:30;;;;;;;0.80;0.20;;;3.70;99.90;;;;;;5007752;28;20071;-94
2024/03/26 05:39:56;;;;;;;1.75;0.40;;;3.70;99.90;;;;;;5005032;28;20052;-94
2024/03/26 05:42:24;;;;;;;2.67;0.30;;;3.80;99.90;;;;;;5009843;28;20482;-94
2024/03/26 05:44:55;;;;;;;1.15;0.20;;;3.80;99.90;;;;;;5008362;28;20109;-94
2024/03/26 05:47:24;;;;;;;1.50;0.25;;;3.80;99.90;;;;;;5007300;28;20045;-94
2024/03/26 05:49:50;;;;;;;1.13;0.20;;;3.80;99.90;;;;;;5006969;28;20113;-93
2024/03/26 05:52:15;;;;;;;0.80;0.30;;;3.80;99.90;;;;;;5009151;28;20098;-93
2024/03/26 05:54:47;;;;;;;1.63;0.35;;;3.80;99.90;;;;;;5002844;28;20153;-93
2024/03/26 05:57:18;;;;;;;1.80;0.35;;;3.90;99.90;;;;;;4984984;28;20042;-94
2024/03/26 05:59:44;;;;;;;0.73;0.20;;;3.90;99.90;;;;;;5001086;28;20069;-93
2024/03/26 06:02:15;;;;;;;2.65;0.45;;;3.90;99.90;;;;;;4999339;28;20030;-94
2024/03/26 06:04:41;;;;;;;1.48;0.30;;;3.90;99.90;;;;;;5000784;28;20030;-94
2024/03/26 06:07:07;;;;;;;2.25;0.30;;;4.00;99.90;;;;;;5003447;28;20036;-94
2024/03/26 06:09:39;;;;;;;2.28;0.45;;;4.00;99.90;;;;;;5002357;28;20034;-94
2024/03/26 06:12:09;;;;;;;1.58;0.38;;;4.00;99.90;;;;;;5003457;28;20034;-93
2024/03/26 06:14:35;;;;;;;1.75;0.70;;;4.00;99.90;;;;;;4997197;28;20405;-95
2024/03/26 06:17:03;;;;;;;1.60;0.32;;;4.00;99.90;;;;;;5004845;28;20045;-93
2024/03/26 06:19:34;;;;;;;2.35;0.32;;;4.10;99.90;;;;;;4998649;28;20455;-94
2024/03/26 06:22:05;;;;;;;0.85;0.30;;;4.10;99.90;;;;;;5002102;28;20057;-93
2024/03/26 06:24:33;;;;;;;2.17;0.40;;;4.10;99.90;;;;;;5014075;28;20026;-94
2024/03/26 06:27:01;;;;;;;1.33;0.38;;;4.20;99.90;;;;;;5000516;28;20034;-93
2024/03/26 06:29:27;;;;;;;1.23;0.30;;;4.20;99.90;;;;;;4998893;28;20040;-94
2024/03/26 06:35:34;;;;;;;0.85;0.22;;;4.20;99.90;;;;;;4998232;28;20169;-94
2024/03/26 06:38:00;;;;;;;1.75;0.30;;;4.30;99.90;;;;;;5004958;28;20551;-94
2024/03/26 06:40:26;;;;;;;0.88;0.20;;;4.30;99.90;;;;;;4999813;28;20051;-94
2024/03/26 06:42:54;;;;;;;1.02;0.30;;;4.30;99.90;;;;;;5001195;28;20026;-93
2024/03/26 06:45:20;;;;;;;1.63;0.32;;;4.40;99.90;;;;;;5001846;28;20033;-94
2024/03/26 06:47:45;;;;;;;1.08;0.30;;;4.40;99.90;;;;;;4996536;28;20026;-94
2024/03/26 06:51:15;;;;;;;1.40;0.40;;;4.50;99.90;;;;;;4992332;28;20042;-93
2024/03/26 06:53:49;;;;;;;2.15;0.30;;;4.60;99.90;;;;;;4939965;28;20040;-94
2024/03/26 07:43:32;;;;;;;1.77;0.30;;;5.70;99.90;;;;;;4948949;23;20099;-93
2024/03/26 07:47:32;;;;;;;1.13;0.30;;;6.10;99.90;;;;;;4873129;29;20085;-93
2024/03/26 07:50:11;;;;;;;1.10;0.40;;;6.30;99.90;;;;;;4830277;29;20064;-93
2024/03/26 07:52:44;;;;;;;3.60;0.40;;;6.60;99.90;;;;;;4861092;29;20127;-93
2024/03/26 07:55:16;;;;;;;2.13;0.40;;;6.80;99.90;;;;;;4923636;28;20027;-92
2024/03/26 07:57:42;;;;;;;1.77;0.40;;;7.00;99.90;;;;;;4905532;29;20034;-91
2024/03/26 08:00:40;;;;;;;2.53;0.55;;;7.00;99.90;;;;;;4911462;29;20094;-94
2024/03/26 08:03:57;;;;;;;;;;;;;;;;;;;;;
2024/03/26 08:11:02;;;;;;;1.33;0.30;;;7.00;99.90;;;;;;4770152;29;20472;-92
2024/03/26 08:13:40;;;;;;;1.88;0.40;;;7.10;99.90;;;;;;4781402;29;20042;-94
2024/03/26 08:16:31;;;;;;;2.38;0.40;;;7.00;99.90;;;;;;4813144;29;20041;-93
2024/03/26 08:20:30;;;;;;;;;;;;;;;;;;;;;
2024/03/26 08:22:45;;;;;;;1.33;0.40;;;7.00;99.90;;;;;;4919994;29;20652;-92
2024/03/26 08:25:11;;;;;;;1.05;0.20;;;7.10;99.90;;;;;;4914134;29;20054;-91
2024/03/26 08:34:44;;;;;;;2.75;0.50;;;7.30;99.90;;;;;;4853183;29;20048;-93
2024/03/26 08:37:11;;;;;;;2.08;0.40;;;7.40;99.90;;;;;;4910880;29;20039;-88
2024/03/26 08:39:37;;;;;;;1.73;0.40;;;7.50;99.90;;;;;;4919115;29;20702;-90
2024/03/26 08:42:03;;;;;;;1.77;0.60;;;7.60;99.90;;;;;;4921734;29;20055;-91
2024/03/26 08:44:30;;;;;;;2.40;0.40;;;7.70;99.90;;;;;;4918257;28;20102;-91
2024/03/26 08:46:55;;;;;;;1.10;0.40;;;7.80;99.90;;;;;;4916829;29;20035;-91
2024/03/26 08:49:24;;;;;;;0.95;0.40;;;7.80;99.90;;;;;;4903695;29;20031;-91
2024/03/26 08:51:49;;;;;;;1.05;0.30;;;7.90;99.90;;;;;;4922956;28;20061;-90
2024/03/26 08:54:15;;;;;;;1.10;0.40;;;8.00;99.90;;;;;;4913975;28;20054;-90
2024/03/26 08:56:42;;;;;;;1.23;0.40;;;7.90;99.90;;;;;;4899802;29;20082;-91
2024/03/26 08:59:08;;;;;;;1.58;0.50;;;8.10;99.90;;;;;;4914743;28;20490;-92
2024/03/26 09:01:34;;;;;;;1.30;0.30;;;8.10;99.90;;;;;;4898182;29;20445;-91
2024/03/26 09:04:00;;;;;;;1.48;0.40;;;8.10;99.90;;;;;;4887337;29;20035;-91
2024/03/26 09:06:25;;;;;;;2.10;0.40;;;8.20;99.90;;;;;;4910185;29;20193;-92
2024/03/26 09:08:59;;;;;;;1.10;0.47;;;8.20;99.90;;;;;;4913661;28;20031;-92
2024/03/26 09:11:24;;;;;;;1.60;0.40;;;8.30;99.90;;;;;;4883216;28;20051;-91
2024/03/26 09:13:50;;;;;;;1.00;0.40;;;8.30;99.90;;;;;;4915346;28;20106;-91
2024/03/26 09:16:17;;;;;;;1.70;0.30;;;8.40;99.90;;;;;;4887827;29;20040;-90
2024/03/26 09:18:43;;;;;;;2.42;0.40;;;8.40;99.90;;;;;;4895289;29;20048;-94
2024/03/26 09:21:10;;;;;;;3.13;0.30;;;8.50;99.90;;;;;;4872606;29;20764;-91
2024/03/26 09:23:36;;;;;;;1.70;0.40;;;8.50;99.90;;;;;;4890506;29;20042;-92
2024/03/26 09:26:03;;;;;;;2.35;0.43;;;8.50;99.90;;;;;;4887182;29;20032;-93
2024/03/26 09:28:29;;;;;;;1.65;0.60;;;8.60;99.90;;;;;;4892788;29;20040;-91
2024/03/26 09:30:55;;;;;;;1.52;0.63;;;8.70;99.90;;;;;;4898240;29;20482;-90
2024/03/26 09:33:21;;;;;;;2.05;0.50;;;8.80;99.90;;;;;;4892204;29;20048;-91
2024/03/26 09:35:47;;;;;;;0.90;0.30;;;8.80;99.90;;;;;;4897763;29;20048;-89
2024/03/26 09:38:13;;;;;;;1.58;0.45;;;8.90;99.90;;;;;;4897547;29;20055;-90
2024/03/26 09:40:38;;;;;;;1.48;0.30;;;9.10;99.90;;;;;;4884438;29;20114;-92
2024/03/26 09:43:08;;;;;;;2.38;0.40;;;9.20;99.90;;;;;;4896475;29;20443;-91
2024/03/26 09:45:34;;;;;;;2.23;0.40;;;9.20;99.90;;;;;;4867555;29;20122;-90
2024/03/26 09:48:01;;;;;;;2.75;0.38;;;9.30;99.90;;;;;;4892880;29;20551;-90
2024/03/26 09:50:38;;;;;;;1.30;0.40;;;9.50;99.90;;;;;;4890893;29;20118;-90
2024/03/26 09:53:04;;;;;;;1.63;0.40;;;9.50;99.90;;;;;;4889698;29;20185;-91
2024/03/26 09:55:33;;;;;;;1.70;0.30;;;9.50;99.90;;;;;;4885428;29;20062;-92
2024/03/26 09:57:59;;;;;;;1.40;0.40;;;9.50;99.90;;;;;;4885731;29;20048;-88
2024/03/26 10:00:26;;;;;;;2.92;0.52;;;9.60;99.90;;;;;;4885747;29;20315;-89
2024/03/26 10:02:54;;;;;;;1.30;0.40;;;9.50;99.90;;;;;;4894348;29;20502;-90
2024/03/26 10:05:20;;;;;;;2.40;0.52;;;9.50;99.90;;;;;;4882185;29;20039;-90
2024/03/26 10:07:46;;;;;;;1.65;0.43;;;9.50;99.90;;;;;;4903568;29;20552;-90
2024/03/26 10:10:13;;;;;;;1.27;0.40;;;9.70;99.90;;;;;;4870362;29;20043;-91
2024/03/26 10:12:43;;;;;;;1.77;0.50;;;9.80;99.90;;;;;;4889146;29;20056;-90
2024/03/26 10:15:09;;;;;;;3.00;0.30;;;10.00;99.90;;;;;;4876169;29;20039;-90
2024/03/26 10:17:35;;;;;;;1.15;0.30;;;10.00;99.90;;;;;;4887425;29;20052;-90
2024/03/26 10:20:02;;;;;;;0.63;0.32;;;10.20;99.90;;;;;;4896782;29;20476;-88
2024/03/26 10:22:28;;;;;;;1.70;0.30;;;10.30;99.90;;;;;;4884810;29;20068;-91
2024/03/26 10:24:54;;;;;;;1.42;0.40;;;10.30;99.90;;;;;;4887919;29;20554;-89
2024/03/26 10:27:19;;;;;;;1.00;0.35;;;10.20;99.90;;;;;;4886528;29;20399;-90
2024/03/26 10:29:45;;;;;;;1.55;0.30;;;10.30;94.50;;;;;;4888079;29;20042;-91
2024/03/26 10:32:15;;;;;;;1.17;0.30;;;10.30;90.40;;;;;;4892143;29;20032;-90
2024/03/26 10:34:42;;;;;;;1.75;0.30;;;10.40;83.40;;;;;;4887040;29;20036;-91
2024/03/26 10:37:09;;;;;;;1.50;0.30;;;10.50;83.10;;;;;;4891592;29;20625;-89
2024/03/26 10:39:37;;;;;;;1.45;0.40;;;10.50;70.00;;;;;;4894420;29;20043;-90
2024/03/26 10:42:05;;;;;;;1.08;0.30;;;10.50;50.10;;;;;;4882217;29;20059;-90
2024/03/26 10:44:34;;;;;;;1.00;0.40;;;10.70;59.10;;;;;;4882341;29;20048;-90
2024/03/26 10:47:01;;;;;;;1.30;0.30;;;10.80;54.40;;;;;;4885058;29;20064;-90
2024/03/26 10:49:29;;;;;;;1.30;0.30;;;10.90;55.00;;;;;;4885121;29;20176;-89
2024/03/26 10:52:00;;;;;;;0.75;0.30;;;10.90;44.30;;;;;;4910367;29;20130;-91
2024/03/26 10:54:26;;;;;;;0.98;0.30;;;10.90;29.70;;;;;;4883137;29;20042;-89
2024/03/26 10:56:53;;;;;;;2.38;0.40;;;11.00;31.00;;;;;;4891596;29;20532;-90
2024/03/26 10:59:20;;;;;;;1.33;0.40;;;11.00;24.80;;;;;;4897059;29;20102;-90
2024/03/26 11:01:48;;;;;;;1.40;0.30;;;10.90;15.50;;;;;;4896503;29;20083;-89
2024/03/26 11:04:15;;;;;;;1.40;0.30;;;11.10;21.60;;;;;;4879649;29;20050;-90
2024/03/26 11:06:41;;;;;;;1.80;0.30;;;11.40;22.70;;;;;;4884967;29;20495;-89
2024/03/26 11:09:07;;;;;;;1.10;0.30;;;11.50;20.60;;;;;;4882369;29;20039;-89
2024/03/26 11:11:34;;;;;;;1.77;0.30;;;11.60;11.60;;;;;;4879470;29;20051;-89
2024/03/26 11:14:02;;;;;;;1.67;0.30;;;11.60;2.20;;;;;;4888014;29;20036;-89
2024/03/26 11:16:39;;;;;;;1.02;0.40;;;11.50;1.50;;;;;;4878822;29;20028;-88
2024/03/26 11:19:24;;;;;;;1.27;0.40;;;11.70;1.00;;;;;;4880490;29;20047;-89
2024/03/26 11:21:53;;;;;;;1.90;0.40;;;11.90;1.00;;;;;;4894236;29;20059;-89
2024/03/26 11:24:30;;;;;;;0.85;0.40;;;11.90;1.00;;;;;;4882880;29;20136;-89
2024/03/26 11:27:00;;;;;;;1.17;0.30;;;11.90;1.00;;;;;;4885670;29;20040;-89
2024/03/26 11:29:29;;;;;;;1.02;0.40;;;12.10;1.00;;;;;;4885073;29;20043;-89
2024/03/26 11:31:58;;;;;;;2.92;0.40;;;12.10;1.00;;;;;;4888471;29;21234;-90
2024/03/26 11:34:25;;;;;;;1.88;0.40;;;12.10;1.00;;;;;;4885850;29;20127;-89
2024/03/26 11:36:55;;;;;;;1.25;0.30;;;12.00;1.00;;;;;;4896690;29;20047;-89
2024/03/26 11:39:22;;;;;;;0.77;0.20;;;11.80;1.00;;;;;;4889711;29;20142;-89
2024/03/26 11:41:50;;;;;;;0.68;0.30;;;12.00;1.00;;;;;;4889199;29;21837;-89
2024/03/26 11:44:16;;;;;;;1.58;0.30;;;12.00;1.00;;;;;;4910695;29;20040;-90
2024/03/26 11:46:48;;;;;;;1.90;0.88;;;12.20;1.00;;;;;;4890235;29;20514;-89
2024/03/26 11:49:13;;;;;;;2.35;0.32;;;12.10;1.00;;;;;;4905838;29;20043;-90
2024/03/26 11:51:40;;;;;;;2.22;0.30;;;12.10;1.00;;;;;;4890195;29;20059;-89
2024/03/26 11:54:08;;;;;;;1.55;0.63;;;12.10;1.00;;;;;;4897539;29;20028;-91
2024/03/26 11:56:34;;;;;;;1.15;0.40;;;12.10;1.00;;;;;;4896985;29;20040;-90
2024/03/26 11:59:00;;;;;;;1.00;0.30;;;12.20;1.00;;;;;;4892081;29;20044;-91
2024/03/26 12:01:26;;;;;;;0.90;0.30;;;12.20;1.00;;;;;;4903802;29;20032;-90
2024/03/26 12:03:53;;;;;;;1.30;0.30;;;12.40;1.00;;;;;;4889441;29;20566;-90
2024/03/26 12:06:24;;;;;;;1.52;0.30;;;12.40;1.00;;;;;;4884994;29;20126;-89
2024/03/26 12:08:59;;;;;;;0.73;0.25;;;12.30;1.00;;;;;;4896427;29;20039;-90
2024/03/26 12:11:25;;;;;;;1.42;0.30;;;12.40;1.00;;;;;;4910685;29;20088;-90
2024/03/26 12:13:52;;;;;;;1.67;0.40;;;12.40;1.00;;;;;;4863744;29;20071;-88
2024/03/26 12:16:28;;;;;;;1.77;0.38;;;12.30;1.00;;;;;;4888528;29;20040;-89
2024/03/26 12:18:55;;;;;;;1.20;0.30;;;12.30;1.00;;;;;;4889955;29;20063;-91
2024/03/26 12:21:22;;;;;;;0.90;0.28;;;12.40;1.00;;;;;;4902313;29;20047;-90
2024/03/26 12:23:52;;;;;;;1.23;0.20;;;12.50;1.00;;;;;;4908067;29;20154;-90
2024/03/26 12:26:19;;;;;;;1.48;0.30;;;12.60;1.00;;;;;;4902240;28;20395;-90
2024/03/26 12:28:45;;;;;;;0.77;0.20;;;12.60;1.00;;;;;;4893272;29;20028;-89
2024/03/26 12:31:11;;;;;;;2.95;0.30;;;12.70;1.00;;;;;;4908029;29;20786;-91
2024/03/26 12:33:37;;;;;;;0.70;0.28;;;12.80;1.00;;;;;;4892880;29;20038;-89
2024/03/26 12:36:04;;;;;;;1.50;0.30;;;12.90;1.00;;;;;;4887684;29;20042;-90
2024/03/26 12:38:33;;;;;;;2.15;0.32;;;12.90;1.00;;;;;;4896967;29;20067;-90
2024/03/26 12:40:59;;;;;;;0.90;0.25;;;13.00;1.00;;;;;;4887803;29;20053;-90
2024/03/26 12:43:25;;;;;;;0.65;0.20;;;12.90;1.00;;;;;;4887773;29;21063;-89
2024/03/26 12:45:51;;;;;;;1.13;0.20;;;13.00;1.00;;;;;;4886950;29;20055;-90
2024/03/26 12:48:17;;;;;;;1.38;0.30;;;13.00;1.00;;;;;;4896147;29;20256;-90
2024/03/26 12:50:43;;;;;;;1.13;0.22;;;13.20;1.00;;;;;;4884160;29;20374;-89
2024/03/26 12:53:09;;;;;;;0.90;0.30;;;13.20;1.00;;;;;;4890088;29;20147;-90
2024/03/26 12:55:34;;;;;;;1.88;0.28;;;13.20;1.00;;;;;;4908222;29;20749;-90
2024/03/26 12:58:01;;;;;;;1.20;0.20;;;13.30;1.00;;;;;;4891859;29;20464;-90
2024/03/26 13:00:27;;;;;;;1.45;0.22;;;13.30;1.00;;;;;;4897899;29;20032;-90
2024/03/26 13:02:53;;;;;;;1.73;0.20;;;13.20;1.00;;;;;;4892735;29;20036;-90
2024/03/26 13:05:19;;;;;;;2.70;0.40;;;13.10;1.00;;;;;;4888307;29;20051;-90
2024/03/26 13:07:44;;;;;;;1.33;0.30;;;13.00;1.00;;;;;;4890734;29;20059;-90
2024/03/26 13:10:10;;;;;;;2.30;0.50;;;13.10;1.00;;;;;;4894463;29;20136;-91
2024/03/26 13:12:36;;;;;;;0.98;0.30;;;12.90;1.00;;;;;;4885466;29;20049;-89
2024/03/26 13:15:03;;;;;;;1.13;0.30;;;13.00;1.00;;;;;;4871707;29;20126;-89
2024/03/26 13:17:28;;;;;;;1.48;0.30;;;13.10;1.00;;;;;;4879098;29;20493;-89
2024/03/26 13:19:54;;;;;;;0.95;0.30;;;13.10;1.00;;;;;;4897743;29;20039;-89
2024/03/26 13:22:20;;;;;;;0.95;0.30;;;13.20;1.00;;;;;;4901899;29;20079;-89
2024/03/26 13:24:46;;;;;;;1.10;0.20;;;13.20;1.00;;;;;;4870683;29;20369;-88
2024/03/26 13:27:11;;;;;;;1.08;0.20;;;13.30;1.00;;;;;;4894841;29;20150;-89
2024/03/26 13:29:37;;;;;;;1.27;0.20;;;13.50;1.00;;;;;;4891867;29;20040;-89
2024/03/26 13:32:03;;;;;;;1.10;0.20;;;13.50;1.00;;;;;;4888513;29;20037;-89
2024/03/26 13:34:29;;;;;;;1.40;0.20;;;13.60;1.00;;;;;;4885713;29;20518;-89
2024/03/26 13:36:54;;;;;;;1.30;0.20;;;13.60;1.00;;;;;;4887142;29;20075;-89
2024/03/26 13:39:21;;;;;;;1.85;0.25;;;13.80;1.00;;;;;;4891410;29;20040;-89
2024/03/26 13:41:47;;;;;;;1.23;0.30;;;13.80;1.00;;;;;;4884662;29;20093;-88
2024/03/26 13:44:12;;;;;;;0.70;0.20;;;13.80;1.00;;;;;;4888706;29;20036;-89
2024/03/26 13:46:40;;;;;;;1.70;0.30;;;13.60;1.00;;;;;;4900620;29;20038;-88
2024/03/26 13:49:14;;;;;;;1.38;0.30;;;13.70;1.00;;;;;;4883465;29;20383;-89
2024/03/26 13:51:41;;;;;;;2.22;0.30;;;13.70;1.00;;;;;;4867921;29;20054;-88
2024/03/26 13:54:07;;;;;;;1.13;0.20;;;13.60;1.00;;;;;;4895636;29;20031;-88
2024/03/26 13:56:33;;;;;;;1.63;0.30;;;13.40;1.00;;;;;;4886314;29;20039;-89
2024/03/26 13:58:58;;;;;;;1.15;0.35;;;13.40;1.00;;;;;;4890211;29;20044;-88
2024/03/26 14:01:24;;;;;;;1.70;0.20;;;13.30;1.00;;;;;;4874466;29;20334;-89
2024/03/26 14:03:50;;;;;;;0.73;0.20;;;13.20;1.00;;;;;;4883292;29;20563;-89
2024/03/26 14:06:15;;;;;;;1.23;0.20;;;13.10;1.00;;;;;;4862793;29;21612;-89